Time;durP1;ratioP1;P1;durP2;ratioP2;P2;SDS_P1;SDS_P2;PMS_P1;PMS_P2;Temp;Humidity;BMP_temperature;BMP_pressure;BME280_temperature;BME280_humidity;BME280_pressure;Samples;Min_cycle;Max_cycle;Signal;HPM_P1;HPM_P2
2024/02/22 00:00:48;;;;;;;0.60;0.60;;;;;;;9.82;58.05;97676.38;4932540;29;20173;-91
2024/02/22 00:03:15;;;;;;;0.60;0.60;;;;;;;9.95;57.37;97674.78;4938863;29;20398;-92
2024/02/22 00:05:41;;;;;;;0.60;0.60;;;;;;;10.62;53.57;97672.13;4953462;29;20042;-91
2024/02/22 00:08:06;;;;;;;0.63;0.63;;;;;;;10.66;53.35;97668.63;4939495;29;20035;-92
2024/02/22 00:10:34;;;;;;;0.60;0.60;;;;;;;10.91;52.60;97673.34;4939716;29;20061;-91
2024/02/22 00:12:59;;;;;;;0.70;0.70;;;;;;;10.79;52.93;97666.13;4955076;29;20116;-91
2024/02/22 00:15:26;;;;;;;0.60;0.60;;;;;;;10.64;53.81;97667.72;4951210;29;20038;-91
2024/02/22 00:17:52;;;;;;;0.60;0.60;;;;;;;11.09;51.43;97658.41;4949794;28;20027;-92
2024/02/22 00:20:18;;;;;;;;;;;;;;;11.17;51.23;97648.72;4956579;28;20043;-92
2024/02/22 00:22:44;;;;;;;0.60;0.60;;;;;;;10.87;53.05;97639.50;4958475;28;19930;-92
2024/02/22 00:25:10;;;;;;;0.60;0.60;;;;;;;11.20;50.93;97640.72;4974485;28;20425;-91
2024/02/22 00:27:36;;;;;;;0.60;0.60;;;;;;;11.47;50.42;97629.38;4970888;28;20027;-92
2024/02/22 00:30:03;;;;;;;0.60;0.60;;;;;;;11.54;50.73;97628.53;4953836;29;20071;-92
2024/02/22 00:32:29;;;;;;;0.60;0.60;;;;;;;11.60;50.48;97619.69;4961114;28;20074;-91
2024/02/22 00:34:55;;;;;;;0.68;0.68;;;;;;;11.61;50.51;97624.16;4945960;29;20035;-93
2024/02/22 00:37:20;;;;;;;0.57;0.57;;;;;;;11.52;50.71;97611.63;4940935;29;20066;-91
2024/02/22 00:39:46;;;;;;;0.60;0.60;;;;;;;11.62;50.39;97591.19;4940825;29;20425;-91
2024/02/22 00:42:12;;;;;;;0.60;0.60;;;;;;;11.57;51.26;97602.75;4954186;29;20042;-91
2024/02/22 00:44:38;;;;;;;0.50;0.50;;;;;;;11.46;51.62;97587.53;4955528;29;20027;-90
2024/02/22 00:47:03;;;;;;;0.50;0.50;;;;;;;11.44;52.29;97598.19;4952985;29;20409;-90
2024/02/22 00:49:29;;;;;;;0.60;0.60;;;;;;;11.07;54.29;97594.34;4940340;29;20469;-92
2024/02/22 00:51:54;;;;;;;0.60;0.60;;;;;;;10.74;55.60;97577.13;4956667;28;20082;-91
2024/02/22 00:54:20;;;;;;;0.55;0.55;;;;;;;10.49;57.71;97583.06;4940704;29;20045;-92
2024/02/22 00:56:45;;;;;;;0.50;0.50;;;;;;;10.31;58.19;97570.47;4958125;29;20079;-92
2024/02/22 00:59:10;;;;;;;0.60;0.60;;;;;;;10.38;56.65;97564.31;4920184;29;20035;-91
2024/02/22 01:01:36;;;;;;;0.60;0.60;;;;;;;10.60;56.46;97565.44;4922664;29;20027;-91
2024/02/22 01:04:02;;;;;;;0.60;0.60;;;;;;;10.59;56.89;97563.66;4955789;28;20102;-92
2024/02/22 01:06:27;;;;;;;0.60;0.60;;;;;;;10.69;56.24;97559.31;4955662;28;20031;-92
2024/02/22 01:08:53;;;;;;;0.60;0.60;;;;;;;10.57;56.15;97545.84;4936805;28;20043;-92
2024/02/22 01:11:18;;;;;;;0.60;0.60;;;;;;;10.25;58.46;97543.72;4938030;29;20031;-92
2024/02/22 01:13:43;;;;;;;0.60;0.60;;;;;;;10.03;59.67;97539.88;4953806;28;20035;-92
2024/02/22 01:16:09;;;;;;;0.60;0.60;;;;;;;9.91;60.16;97537.06;4953967;29;20791;-92
2024/02/22 01:18:34;;;;;;;0.60;0.60;;;;;;;9.67;63.26;97525.22;4953610;29;20042;-93
2024/02/22 01:21:00;;;;;;;0.70;0.70;;;;;;;9.48;62.76;97529.38;4938400;29;20156;-92
2024/02/22 01:23:25;;;;;;;0.70;0.70;;;;;;;9.45;63.64;97516.06;4948461;29;20077;-92
2024/02/22 01:25:51;;;;;;;0.70;0.70;;;;;;;9.46;63.81;97531.16;4933576;29;20559;-92
2024/02/22 01:28:16;;;;;;;0.60;0.60;;;;;;;9.26;65.27;97516.66;4953981;28;20078;-92
2024/02/22 01:30:42;;;;;;;0.60;0.60;;;;;;;9.51;63.24;97510.81;4953392;29;20030;-93
2024/02/22 01:33:09;;;;;;;0.70;0.70;;;;;;;9.76;62.52;97503.13;4936760;29;20666;-92
2024/02/22 01:35:34;;;;;;;0.70;0.70;;;;;;;9.68;62.83;97503.06;4952770;28;20141;-91
2024/02/22 01:38:00;;;;;;;0.60;0.60;;;;;;;9.61;63.74;97497.63;4922027;29;20062;-91
2024/02/22 01:40:25;;;;;;;0.70;0.70;;;;;;;9.63;64.19;97499.44;4936564;29;20051;-92
2024/02/22 01:42:51;;;;;;;0.60;0.60;;;;;;;9.57;65.56;97487.78;4940113;28;20050;-90
2024/02/22 01:45:16;;;;;;;0.63;0.63;;;;;;;9.39;65.85;97481.38;4952244;29;20027;-91
2024/02/22 01:47:42;;;;;;;0.60;0.60;;;;;;;9.52;65.47;97477.09;4953713;29;20533;-91
2024/02/22 01:50:09;;;;;;;0.63;0.63;;;;;;;9.75;64.16;97470.28;4946913;29;20188;-91
2024/02/22 01:52:35;;;;;;;0.70;0.70;;;;;;;9.88;64.42;97462.44;4951081;29;20054;-91
2024/02/22 01:55:01;;;;;;;0.60;0.60;;;;;;;9.98;64.36;97459.91;4953622;29;20047;-92
2024/02/22 01:57:26;;;;;;;0.60;0.60;;;;;;;9.92;64.05;97456.28;4935449;29;20050;-91
2024/02/22 01:59:52;;;;;;;0.60;0.60;;;;;;;9.98;63.74;97459.91;4953814;29;20043;-91
2024/02/22 02:02:19;;;;;;;0.63;0.63;;;;;;;10.02;63.68;97455.50;4938176;29;20683;-91
2024/02/22 02:04:44;;;;;;;0.70;0.70;;;;;;;10.11;64.32;97444.00;4938400;29;20035;-93
2024/02/22 02:07:10;;;;;;;0.60;0.60;;;;;;;10.00;64.29;97438.59;4953390;28;20090;-91
2024/02/22 02:09:35;;;;;;;0.70;0.70;;;;;;;9.83;65.22;97449.06;4953041;29;20134;-93
2024/02/22 02:12:02;;;;;;;0.60;0.60;;;;;;;9.74;66.07;97436.53;4937352;29;20035;-92
2024/02/22 02:14:28;;;;;;;0.60;0.60;;;;;;;9.45;67.38;97425.53;4951771;28;20626;-94
2024/02/22 02:16:53;;;;;;;0.70;0.70;;;;;;;9.15;69.98;97425.13;4937330;29;20036;-92
2024/02/22 02:19:20;;;;;;;0.68;0.68;;;;;;;9.27;69.24;97432.41;4954776;29;20039;-92
2024/02/22 02:22:10;;;;;;;0.70;0.70;;;;;;;9.23;70.20;97429.69;4935013;29;20097;-92
2024/02/22 02:24:41;;;;;;;0.70;0.70;;;;;;;9.12;70.93;97419.78;4937730;29;20956;-93
2024/02/22 02:27:07;;;;;;;0.70;0.70;;;;;;;9.01;71.92;97416.97;4954917;28;20035;-93
2024/02/22 02:29:33;;;;;;;0.70;0.70;;;;;;;9.06;73.26;97404.63;4937696;29;20035;-92
2024/02/22 02:32:00;;;;;;;0.60;0.60;;;;;;;9.07;71.91;97401.09;4937989;29;20043;-92
2024/02/22 02:34:25;;;;;;;0.70;0.70;;;;;;;9.12;72.33;97411.78;4950044;29;20035;-92
2024/02/22 02:36:50;;;;;;;0.70;0.70;;;;;;;9.04;73.80;97400.16;4954779;29;20552;-92
2024/02/22 02:39:16;;;;;;;0.70;0.70;;;;;;;8.83;74.62;97395.44;4919598;29;20043;-94
2024/02/22 02:41:41;;;;;;;0.70;0.70;;;;;;;8.73;75.30;97405.03;4955078;28;20035;-92
2024/02/22 02:44:08;;;;;;;0.70;0.70;;;;;;;8.70;76.29;97400.56;4937640;29;20174;-94
2024/02/22 02:46:35;;;;;;;0.75;0.75;;;;;;;8.78;75.46;97395.38;4953853;29;20086;-92
2024/02/22 02:49:00;;;;;;;0.70;0.70;;;;;;;8.62;77.25;97395.97;4951048;28;20213;-92
2024/02/22 02:51:28;;;;;;;0.70;0.70;;;;;;;8.96;74.83;97385.00;4954416;29;20315;-92
2024/02/22 02:53:53;;;;;;;0.70;0.70;;;;;;;8.81;75.79;97384.75;4938731;28;20031;-93
2024/02/22 02:56:19;;;;;;;0.75;0.75;;;;;;;8.68;76.15;97386.34;4959277;29;20026;-93
2024/02/22 02:58:44;;;;;;;0.70;0.70;;;;;;;8.72;76.32;97377.56;4959013;29;20118;-93
2024/02/22 03:01:10;;;;;;;0.70;0.70;;;;;;;8.73;76.54;97384.66;4942884;28;20027;-92
2024/02/22 03:03:35;;;;;;;0.70;0.70;;;;;;;8.54;77.07;97371.97;4960510;28;20106;-92
2024/02/22 03:06:01;;;;;;;0.75;0.75;;;;;;;8.58;77.91;97370.25;4958529;28;20110;-92
2024/02/22 03:08:26;;;;;;;0.73;0.73;;;;;;;8.57;77.93;97366.66;4947491;28;20038;-93
2024/02/22 03:10:52;;;;;;;0.80;0.80;;;;;;;8.58;77.86;97359.63;4967060;28;20035;-92
2024/02/22 03:13:17;;;;;;;0.70;0.70;;;;;;;8.67;77.86;97359.72;4960052;28;20047;-90
2024/02/22 03:15:43;;;;;;;0.70;0.70;;;;;;;8.84;75.54;97355.56;4977040;28;20051;-91
2024/02/22 03:18:08;;;;;;;0.70;0.70;;;;;;;8.77;77.22;97355.44;4960989;28;20050;-91
2024/02/22 03:20:34;;;;;;;0.70;0.70;;;;;;;8.61;77.74;97349.91;4976489;28;20043;-90
2024/02/22 03:23:00;;;;;;;0.70;0.70;;;;;;;8.56;78.48;97345.41;4959107;28;20031;-90
2024/02/22 03:25:27;;;;;;;0.70;0.70;;;;;;;8.64;78.59;97331.34;4944439;29;20050;-92
2024/02/22 03:27:53;;;;;;;0.70;0.70;;;;;;;8.72;77.79;97340.34;4974873;28;20066;-89
2024/02/22 03:30:18;;;;;;;0.70;0.70;;;;;;;8.55;78.76;97339.19;4959065;28;20106;-90
2024/02/22 03:32:44;;;;;;;0.60;0.60;;;;;;;8.47;79.40;97340.81;4973244;28;20062;-91
2024/02/22 03:35:10;;;;;;;0.70;0.70;;;;;;;8.59;78.55;97321.53;4974575;28;20143;-93
2024/02/22 03:37:36;;;;;;;0.70;0.70;;;;;;;8.51;80.02;97317.84;4961129;29;20038;-93
2024/02/22 03:40:02;;;;;;;0.77;0.77;;;;;;;8.54;80.35;97315.25;4973327;28;20031;-91
2024/02/22 03:42:28;;;;;;;0.80;0.80;;;;;;;8.54;80.53;97309.94;4942756;29;20046;-91
2024/02/22 03:44:54;;;;;;;0.68;0.68;;;;;;;8.63;79.12;97310.97;4956497;29;20050;-93
2024/02/22 03:47:19;;;;;;;0.80;0.80;;;;;;;8.61;79.81;97314.44;4943266;29;20035;-92
2024/02/22 03:49:45;;;;;;;0.70;0.70;;;;;;;8.84;78.63;97296.16;4939118;29;20027;-94
2024/02/22 03:52:11;;;;;;;0.70;0.70;;;;;;;8.70;79.85;97298.63;4957061;29;20035;-94
2024/02/22 03:54:37;;;;;;;0.80;0.80;;;;;;;8.72;79.33;97289.81;4959518;28;20046;-94
2024/02/22 03:57:03;;;;;;;0.70;0.70;;;;;;;8.56;80.32;97289.56;4952489;29;20045;-94
2024/02/22 03:59:29;;;;;;;0.70;0.70;;;;;;;8.61;79.73;97285.22;4960973;29;20023;-94
2024/02/22 04:01:58;;;;;;;0.70;0.70;;;;;;;8.73;78.82;97280.97;4947134;29;20130;-89
2024/02/22 04:04:27;;;;;;;0.77;0.77;;;;;;;8.62;79.28;97279.91;4950313;29;20058;-89
2024/02/22 04:06:53;;;;;;;0.70;0.70;;;;;;;8.57;79.17;97275.41;4948979;28;20080;-94
2024/02/22 04:09:20;;;;;;;0.80;0.80;;;;;;;8.39;80.92;97268.09;4947110;29;20046;-92
2024/02/22 04:11:46;;;;;;;0.70;0.70;;;;;;;8.38;81.60;97284.88;4963835;29;20032;-93
2024/02/22 04:14:12;;;;;;;0.80;0.80;;;;;;;8.43;80.73;97278.78;4964955;28;20047;-90
2024/02/22 04:16:38;;;;;;;0.80;0.80;;;;;;;8.53;80.98;97279.81;4967380;28;20189;-89
2024/02/22 04:19:05;;;;;;;0.70;0.70;;;;;;;8.41;81.97;97271.66;4966323;28;20042;-92
2024/02/22 04:21:30;;;;;;;0.70;0.70;;;;;;;8.30;82.72;97276.78;4938905;29;20067;-91
2024/02/22 04:23:56;;;;;;;0.70;0.70;;;;;;;8.22;83.05;97266.03;4954648;29;20039;-91
2024/02/22 04:26:22;;;;;;;0.70;0.70;;;;;;;7.97;84.90;97263.88;4966812;28;20122;-90
2024/02/22 04:28:50;;;;;;;0.70;0.70;;;;;;;8.12;84.69;97265.88;4946674;29;20027;-94
2024/02/22 04:31:16;;;;;;;0.70;0.70;;;;;;;8.19;84.67;97263.34;4944927;29;20283;-94
2024/02/22 04:33:42;;;;;;;0.70;0.70;;;;;;;8.27;84.46;97243.97;4959688;29;20484;-93
2024/02/22 04:36:08;;;;;;;0.73;0.73;;;;;;;8.23;84.62;97254.53;4960799;28;20050;-93
2024/02/22 04:38:34;;;;;;;0.70;0.70;;;;;;;8.19;84.99;97262.44;4945566;29;20038;-91
2024/02/22 04:41:00;;;;;;;0.70;0.70;;;;;;;8.32;83.46;97247.56;4967100;29;20042;-91
2024/02/22 04:43:25;;;;;;;0.80;0.80;;;;;;;8.31;84.49;97244.03;4963052;28;20055;-93
2024/02/22 04:45:51;;;;;;;0.63;0.63;;;;;;;8.26;85.04;97240.41;4961169;28;20039;-95
2024/02/22 04:48:17;;;;;;;0.70;0.70;;;;;;;8.19;85.57;97238.50;4961490;28;20093;-92
2024/02/22 04:50:43;;;;;;;0.60;0.60;;;;;;;8.24;85.72;97242.16;4957069;29;20031;-92
2024/02/22 04:53:09;;;;;;;0.70;0.70;;;;;;;8.28;85.24;97243.97;4944548;29;20047;-93
2024/02/22 04:55:35;;;;;;;0.80;0.80;;;;;;;8.34;84.74;97227.25;4944946;29;20061;-93
2024/02/22 04:58:02;;;;;;;0.70;0.70;;;;;;;8.12;86.20;97226.94;4954982;28;20035;-92
2024/02/22 05:00:29;;;;;;;0.70;0.70;;;;;;;8.18;85.89;97220.81;4955549;28;20026;-94
2024/02/22 05:02:55;;;;;;;0.75;0.75;;;;;;;8.18;86.54;97220.81;4954212;28;20410;-93
2024/02/22 05:05:20;;;;;;;0.70;0.70;;;;;;;8.27;86.21;97220.03;4957441;29;20047;-92
2024/02/22 05:07:46;;;;;;;0.70;0.70;;;;;;;8.17;86.74;97219.03;4956580;29;20107;-92
2024/02/22 05:10:12;;;;;;;0.70;0.70;;;;;;;8.11;88.11;97219.84;4956816;29;20070;-92
2024/02/22 05:12:37;;;;;;;0.70;0.70;;;;;;;8.13;87.93;97214.53;4957434;29;20120;-95
2024/02/22 05:15:04;;;;;;;0.60;0.60;;;;;;;8.43;85.31;97193.75;4944635;29;20055;-94
2024/02/22 05:17:31;;;;;;;0.77;0.77;;;;;;;8.38;85.08;97202.50;4956198;28;20031;-93
2024/02/22 05:19:57;;;;;;;0.70;0.70;;;;;;;8.46;85.44;97198.19;4958515;29;20034;-94
2024/02/22 05:22:23;;;;;;;0.70;0.70;;;;;;;8.27;86.26;97202.34;4944000;29;20050;-93
2024/02/22 05:24:48;;;;;;;0.70;0.70;;;;;;;8.33;86.25;97207.72;4960189;29;20078;-90
2024/02/22 05:27:14;;;;;;;0.80;0.80;;;;;;;8.22;87.29;97190.75;4938277;28;20083;-95
2024/02/22 05:29:39;;;;;;;0.60;0.60;;;;;;;8.27;86.63;97193.47;4935045;29;20066;-94
2024/02/22 05:32:05;;;;;;;0.70;0.70;;;;;;;8.26;87.69;97179.31;4922055;29;20035;-95
2024/02/22 05:34:31;;;;;;;0.70;0.70;;;;;;;8.35;86.02;97170.56;4950667;28;20054;-93
2024/02/22 05:36:56;;;;;;;0.70;0.70;;;;;;;8.24;87.33;97167.78;4937977;29;20031;-94
2024/02/22 05:39:22;;;;;;;0.65;0.65;;;;;;;8.25;87.92;97168.66;4953053;28;20043;-90
2024/02/22 05:41:48;;;;;;;0.70;0.70;;;;;;;8.20;87.86;97164.19;4949641;28;20047;-95
2024/02/22 05:44:16;;;;;;;0.70;0.70;;;;;;;8.21;87.75;97150.00;4953401;28;20091;-92
2024/02/22 05:46:42;;;;;;;0.80;0.80;;;;;;;8.22;88.59;97142.94;4952319;29;20489;-92
2024/02/22 05:49:08;;;;;;;0.70;0.70;;;;;;;8.22;87.98;97149.13;4935294;29;20110;-94
2024/02/22 05:51:34;;;;;;;0.70;0.70;;;;;;;8.20;89.21;97144.69;4937187;29;20034;-93
2024/02/22 05:53:59;;;;;;;0.70;0.70;;;;;;;8.18;89.08;97144.66;4953109;28;20070;-94
2024/02/22 05:56:25;;;;;;;0.70;0.70;;;;;;;8.39;87.97;97141.41;4953059;29;20041;-93
2024/02/22 05:58:50;;;;;;;0.70;0.70;;;;;;;8.26;87.99;97147.41;4920245;29;20082;-93
2024/02/22 06:01:16;;;;;;;0.70;0.70;;;;;;;8.33;88.01;97138.63;4938673;29;20027;-93
2024/02/22 06:03:45;;;;;;;0.70;0.70;;;;;;;8.32;89.18;97134.19;4936400;29;20035;-93
2024/02/22 06:06:11;;;;;;;0.70;0.70;;;;;;;8.27;88.89;97135.91;4956344;29;20035;-92
2024/02/22 06:08:42;;;;;;;0.70;0.70;;;;;;;8.19;89.70;97138.50;4951119;29;20039;-92
2024/02/22 06:11:08;;;;;;;0.70;0.70;;;;;;;8.29;89.36;97126.22;4954888;28;20095;-92
2024/02/22 06:13:34;;;;;;;0.73;0.73;;;;;;;8.23;90.48;97132.31;4934640;29;20046;-94
2024/02/22 06:16:00;;;;;;;0.77;0.77;;;;;;;8.18;90.00;97125.16;4955397;29;20055;-92
2024/02/22 06:18:26;;;;;;;0.70;0.70;;;;;;;8.32;88.79;97120.91;4957714;28;20051;-94
2024/02/22 06:20:54;;;;;;;0.70;0.70;;;;;;;8.27;90.21;97116.41;4935070;29;20038;-93
2024/02/22 06:23:20;;;;;;;0.80;0.80;;;;;;;8.18;90.10;97112.78;4936909;29;20039;-93
2024/02/22 06:25:45;;;;;;;0.70;0.70;;;;;;;8.32;89.42;97117.38;4953520;29;20046;-92
2024/02/22 06:28:11;;;;;;;0.77;0.77;;;;;;;8.30;90.25;97109.38;4937933;29;20035;-91
2024/02/22 06:30:36;;;;;;;0.70;0.70;;;;;;;8.36;89.35;97108.56;4944445;29;20019;-93
2024/02/22 06:33:03;;;;;;;0.70;0.70;;;;;;;8.40;88.83;97103.34;4953427;29;20054;-92
2024/02/22 06:35:29;;;;;;;0.80;0.80;;;;;;;8.37;88.48;97097.09;4934789;29;20055;-90
2024/02/22 06:37:54;;;;;;;0.80;0.80;;;;;;;8.52;88.35;97091.94;4953099;28;20182;-91
2024/02/22 06:40:20;;;;;;;0.70;0.70;;;;;;;8.55;88.08;97101.72;4972526;29;20098;-91
2024/02/22 06:42:47;;;;;;;;;;;;;;;8.44;89.21;97101.63;4955765;29;20090;-91
2024/02/22 06:45:18;;;;;;;0.70;0.70;;;;;;;8.50;88.53;97100.78;4955768;29;19929;-91
2024/02/22 06:47:53;;;;;;;0.80;0.80;;;;;;;8.54;89.05;97094.63;4974376;28;20046;-91
2024/02/22 07:14:30;;;;;;;0.70;0.70;;;;;;;8.57;88.44;97063.63;6002386;23;20017;-92
2024/02/22 07:16:55;;;;;;;0.77;0.77;;;;;;;8.65;87.83;97061.06;4966892;28;20039;-93
2024/02/22 07:19:22;;;;;;;0.77;0.77;;;;;;;8.71;87.30;97055.78;4960270;28;20043;-92
2024/02/22 07:21:48;;;;;;;0.70;0.70;;;;;;;8.57;87.93;97062.75;4960746;28;20035;-92
2024/02/22 07:24:17;;;;;;;0.70;0.70;;;;;;;8.62;87.95;97066.34;4975112;28;20093;-92
2024/02/22 07:26:43;;;;;;;0.70;0.70;;;;;;;8.61;87.93;97054.81;4955986;28;20081;-93
2024/02/22 07:29:08;;;;;;;0.70;0.70;;;;;;;8.77;86.94;97053.22;4953261;28;20039;-95
2024/02/22 07:31:34;;;;;;;0.63;0.63;;;;;;;8.67;88.06;97064.63;4938972;28;20038;-94
2024/02/22 07:34:01;;;;;;;0.80;0.80;;;;;;;8.64;88.24;97065.50;4973316;28;20081;-93
2024/02/22 07:36:27;;;;;;;0.80;0.80;;;;;;;8.71;87.56;97056.69;4951094;28;20045;-95
2024/02/22 07:38:53;;;;;;;0.80;0.80;;;;;;;8.76;87.22;97053.19;4941212;28;20026;-93
2024/02/22 07:41:19;;;;;;;0.70;0.70;;;;;;;8.64;88.50;97056.63;4964506;28;20136;-93
2024/02/22 07:43:47;;;;;;;0.80;0.80;;;;;;;8.66;87.42;97057.53;4949000;28;20031;-91
2024/02/22 07:46:14;;;;;;;0.70;0.70;;;;;;;8.66;86.84;97049.53;4957932;28;20036;-92
2024/02/22 07:48:46;;;;;;;0.80;0.80;;;;;;;8.72;86.50;97052.28;4974192;28;20042;-92
2024/02/22 07:51:14;;;;;;;0.70;0.70;;;;;;;8.61;87.86;97045.94;4968948;28;20114;-92
2024/02/22 07:53:42;;;;;;;0.70;0.70;;;;;;;8.61;88.29;97049.50;4973416;28;20508;-93
2024/02/22 07:56:08;;;;;;;0.70;0.70;;;;;;;8.73;87.74;97043.44;4967145;28;20086;-91
2024/02/22 07:58:51;;;;;;;0.70;0.70;;;;;;;8.79;87.17;97032.84;4977057;28;20050;-92
2024/02/22 08:01:17;;;;;;;0.70;0.70;;;;;;;8.77;87.84;97028.38;4975990;28;20493;-93
2024/02/22 08:03:43;;;;;;;0.77;0.77;;;;;;;8.73;86.84;97031.03;4959300;28;20023;-93
2024/02/22 08:06:12;;;;;;;0.80;0.80;;;;;;;8.76;87.59;97027.47;4960632;28;20050;-90
2024/02/22 08:08:39;;;;;;;0.80;0.80;;;;;;;8.76;87.78;97023.94;4959960;28;20043;-92
2024/02/22 08:11:09;;;;;;;0.70;0.70;;;;;;;8.87;86.53;97017.84;4963792;28;20054;-90
2024/02/22 08:13:35;;;;;;;0.80;0.80;;;;;;;8.79;86.98;97022.19;4969071;28;20102;-90
2024/02/22 08:16:10;;;;;;;0.70;0.70;;;;;;;8.89;86.45;97010.75;4955919;28;20081;-92
2024/02/22 08:18:38;;;;;;;0.73;0.73;;;;;;;8.82;87.18;97013.38;4982705;28;20498;-91
2024/02/22 08:21:03;;;;;;;;;;;;;;;8.83;87.21;97013.38;4976572;28;20027;-93
2024/02/22 08:23:30;;;;;;;0.70;0.70;;;;;;;8.84;86.66;96993.88;4948742;28;19956;-93
2024/02/22 08:25:56;;;;;;;0.80;0.80;;;;;;;8.76;87.58;97006.22;4963330;28;20066;-92
2024/02/22 08:28:28;;;;;;;0.73;0.73;;;;;;;8.79;86.96;96992.94;4958546;28;20070;-93
2024/02/22 08:30:55;;;;;;;0.70;0.70;;;;;;;8.83;86.81;97000.06;4954097;28;20090;-93
2024/02/22 08:33:29;;;;;;;0.70;0.70;;;;;;;8.87;86.23;97001.88;4968242;28;20035;-93
2024/02/22 08:35:56;;;;;;;0.80;0.80;;;;;;;8.92;86.09;96983.31;4968997;28;20074;-92
2024/02/22 08:38:25;;;;;;;0.80;0.80;;;;;;;8.87;86.64;96988.59;4956471;28;20473;-93
2024/02/22 08:40:51;;;;;;;0.70;0.70;;;;;;;8.90;86.26;96980.63;4935403;28;20457;-91
2024/02/22 08:43:17;;;;;;;0.70;0.70;;;;;;;8.89;86.25;96984.16;4956564;28;20122;-92
2024/02/22 08:45:42;;;;;;;0.70;0.70;;;;;;;8.96;85.61;96967.38;4939687;28;20061;-92
2024/02/22 08:48:07;;;;;;;0.70;0.70;;;;;;;9.03;85.15;96968.31;4945546;28;20121;-93
2024/02/22 08:50:33;;;;;;;0.70;0.70;;;;;;;9.02;85.77;96974.50;4934782;28;20063;-93
2024/02/22 08:52:58;;;;;;;0.70;0.70;;;;;;;8.96;86.38;96966.50;4962123;28;20394;-91
2024/02/22 08:55:25;;;;;;;0.70;0.70;;;;;;;9.03;85.42;96980.72;4938975;28;20093;-90
2024/02/22 08:57:51;;;;;;;0.70;0.70;;;;;;;9.05;85.73;96981.59;4923364;28;20676;-93
2024/02/22 09:00:19;;;;;;;0.70;0.70;;;;;;;9.12;85.12;96970.13;4939091;28;20035;-94
2024/02/22 09:02:46;;;;;;;0.80;0.80;;;;;;;9.18;84.06;96962.19;4948334;28;20039;-93
2024/02/22 09:05:11;;;;;;;0.80;0.80;;;;;;;9.22;84.40;96961.34;4948567;28;20046;-92
2024/02/22 09:07:37;;;;;;;0.80;0.80;;;;;;;9.25;84.86;96959.59;4935452;28;20039;-92
2024/02/22 09:10:09;;;;;;;0.70;0.70;;;;;;;9.21;85.21;96956.91;4972385;28;20036;-89
2024/02/22 09:12:35;;;;;;;0.80;0.80;;;;;;;9.22;85.50;96935.59;4977418;28;20035;-91
2024/02/22 09:15:02;;;;;;;0.70;0.70;;;;;;;9.33;84.80;96945.41;4938405;28;20198;-91
2024/02/22 09:17:27;;;;;;;0.80;0.80;;;;;;;9.29;85.62;96944.50;4965448;28;20078;-92
2024/02/22 09:19:55;;;;;;;0.80;0.80;;;;;;;9.33;85.42;96938.31;4948875;28;20564;-93
2024/02/22 09:22:20;;;;;;;0.80;0.80;;;;;;;9.37;85.13;96942.78;4933887;28;20040;-92
2024/02/22 09:24:46;;;;;;;0.70;0.70;;;;;;;9.44;84.42;96933.97;4934107;28;20038;-93
2024/02/22 09:27:15;;;;;;;0.70;0.70;;;;;;;9.37;84.00;96920.59;4956997;28;20043;-91
2024/02/22 09:29:43;;;;;;;0.77;0.77;;;;;;;9.36;85.23;96933.03;4955884;28;20851;-93
2024/02/22 09:32:08;;;;;;;0.70;0.70;;;;;;;9.32;85.94;96922.34;4931638;28;20086;-94
2024/02/22 09:34:34;;;;;;;0.70;0.70;;;;;;;9.31;85.03;96912.59;4942122;28;20047;-93
2024/02/22 09:37:01;;;;;;;0.70;0.70;;;;;;;9.26;85.79;96909.91;4944607;28;20062;-94
2024/02/22 09:39:27;;;;;;;0.68;0.68;;;;;;;9.28;85.33;96905.47;4942433;28;20027;-94
2024/02/22 09:41:54;;;;;;;0.70;0.70;;;;;;;9.32;85.74;96907.28;4955651;28;20031;-92
2024/02/22 09:44:22;;;;;;;0.80;0.80;;;;;;;9.41;84.18;96898.44;4956046;28;20073;-95
2024/02/22 09:46:53;;;;;;;0.70;0.70;;;;;;;9.50;83.60;96899.38;4958596;28;20095;-94
2024/02/22 09:49:23;;;;;;;0.70;0.70;;;;;;;9.57;83.58;96899.38;4949123;28;20501;-95
2024/02/22 09:51:53;;;;;;;0.70;0.70;;;;;;;9.48;83.66;96893.13;4931730;28;20532;-94
2024/02/22 09:54:21;;;;;;;0.70;0.70;;;;;;;9.57;84.66;96902.03;4945902;28;20050;-92
2024/02/22 09:56:48;;;;;;;0.70;0.70;;;;;;;9.56;84.68;96900.28;4939170;28;20037;-92
2024/02/22 09:59:14;;;;;;;0.70;0.70;;;;;;;9.54;83.62;96896.72;4951872;28;20046;-92
2024/02/22 10:01:40;;;;;;;0.80;0.80;;;;;;;9.57;83.89;96896.72;4962380;28;20031;-93
2024/02/22 10:04:19;;;;;;;0.60;0.60;;;;;;;9.58;84.25;96888.75;4964361;28;20051;-92
2024/02/22 10:06:47;;;;;;;0.60;0.60;;;;;;;9.62;83.89;96873.66;4950520;28;20101;-93
2024/02/22 10:09:14;;;;;;;0.70;0.70;;;;;;;9.68;83.03;96871.94;4953786;28;20137;-93
2024/02/22 10:11:44;;;;;;;0.70;0.70;;;;;;;9.83;81.79;96865.75;4959405;28;20509;-94
2024/02/22 10:14:13;;;;;;;0.60;0.60;;;;;;;9.87;81.40;96872.84;4944356;28;20071;-95
2024/02/22 10:16:41;;;;;;;0.70;0.70;;;;;;;9.87;81.81;96875.53;4943975;28;20122;-94
2024/02/22 10:19:12;;;;;;;0.70;0.70;;;;;;;9.94;81.53;96873.75;4964190;28;20054;-92
2024/02/22 10:21:44;;;;;;;0.77;0.77;;;;;;;10.03;81.51;96868.44;4967194;28;20209;-91
2024/02/22 10:24:10;;;;;;;0.70;0.70;;;;;;;10.13;81.36;96859.56;4949719;28;20445;-94
2024/02/22 10:26:35;;;;;;;0.65;0.65;;;;;;;10.15;80.89;96860.44;4953837;28;20537;-95
2024/02/22 10:29:07;;;;;;;0.70;0.70;;;;;;;10.16;80.91;96861.34;4961314;28;20026;-93
2024/02/22 10:31:46;;;;;;;0.70;0.70;;;;;;;10.12;81.37;96852.47;4973619;28;20027;-95
2024/02/22 10:34:13;;;;;;;0.70;0.70;;;;;;;10.18;80.98;96852.44;4959382;28;20134;-93
2024/02/22 10:36:42;;;;;;;0.70;0.70;;;;;;;10.22;81.33;96856.00;4959138;28;20404;-94
2024/02/22 10:39:09;;;;;;;0.60;0.60;;;;;;;10.21;82.01;96862.25;4946368;28;20046;-93
2024/02/22 10:41:35;;;;;;;0.68;0.68;;;;;;;10.30;80.09;96843.63;4954878;28;20034;-94
2024/02/22 10:44:06;;;;;;;0.77;0.77;;;;;;;10.21;81.98;96843.59;4938605;28;20050;-93
2024/02/22 10:46:37;;;;;;;0.70;0.70;;;;;;;10.24;81.32;96825.81;4947783;28;20090;-93
2024/02/22 10:49:11;;;;;;;0.75;0.75;;;;;;;10.32;80.10;96828.50;4977597;28;20054;-93
2024/02/22 10:51:44;;;;;;;0.70;0.70;;;;;;;10.31;80.02;96818.75;4967642;28;20038;-94
2024/02/22 10:54:11;;;;;;;0.70;0.70;;;;;;;10.35;80.08;96822.25;4955578;28;20051;-92
2024/02/22 10:56:41;;;;;;;0.70;0.70;;;;;;;10.19;81.43;96824.03;4951814;28;20047;-92
2024/02/22 10:59:12;;;;;;;0.70;0.70;;;;;;;10.15;81.18;96811.59;4938304;28;20043;-92
2024/02/22 11:01:43;;;;;;;0.70;0.70;;;;;;;10.10;82.88;96814.25;4971535;28;20042;-94
2024/02/22 11:04:11;;;;;;;0.60;0.60;;;;;;;10.18;81.21;96811.59;4960005;28;20035;-95
2024/02/22 11:06:40;;;;;;;0.60;0.60;;;;;;;10.10;81.16;96798.25;4973716;28;20031;-93
2024/02/22 11:09:19;;;;;;;0.70;0.70;;;;;;;9.95;82.04;96795.59;4948332;28;20097;-93
2024/02/22 11:11:48;;;;;;;0.70;0.70;;;;;;;10.08;81.54;96788.50;4949295;28;20045;-93
2024/02/22 11:14:39;;;;;;;0.70;0.70;;;;;;;9.86;82.53;96785.81;4947484;28;20038;-90
2024/02/22 11:17:21;;;;;;;0.60;0.60;;;;;;;9.97;82.12;96778.75;4961471;28;20043;-94
2024/02/22 11:19:55;;;;;;;0.60;0.60;;;;;;;9.98;83.04;96780.50;4960504;28;20053;-94
2024/02/22 11:22:22;;;;;;;0.68;0.68;;;;;;;9.86;83.33;96771.63;4951145;28;20034;-93
2024/02/22 11:24:51;;;;;;;0.60;0.60;;;;;;;9.91;83.17;96762.75;4946016;28;20035;-92
2024/02/22 11:27:18;;;;;;;0.70;0.70;;;;;;;9.89;83.46;96772.53;4961137;28;20049;-93
2024/02/22 11:29:47;;;;;;;0.70;0.70;;;;;;;9.92;84.08;96768.97;4975828;28;20027;-93
2024/02/22 11:32:13;;;;;;;0.70;0.70;;;;;;;9.91;84.42;96738.75;4962715;28;20043;-95
2024/02/22 11:34:39;;;;;;;0.70;0.70;;;;;;;9.95;83.27;96750.31;4940271;28;20071;-92
2024/02/22 11:37:20;;;;;;;0.70;0.70;;;;;;;9.92;84.21;96734.34;4969246;28;20046;-95
2024/02/22 11:39:47;;;;;;;0.60;0.60;;;;;;;9.87;85.03;96734.34;4970768;28;20043;-93
2024/02/22 11:42:18;;;;;;;0.68;0.68;;;;;;;9.92;84.83;96723.69;4937310;28;20429;-93
2024/02/22 11:44:50;;;;;;;0.70;0.70;;;;;;;9.89;84.51;96711.25;4957295;28;20657;-93
2024/02/22 11:47:18;;;;;;;0.60;0.60;;;;;;;9.89;83.81;96697.94;4940578;28;20061;-94
2024/02/22 11:49:45;;;;;;;0.75;0.75;;;;;;;9.86;85.35;96689.94;4947694;28;20496;-91
2024/02/22 11:52:14;;;;;;;0.70;0.70;;;;;;;9.88;84.77;96687.28;4954015;29;20039;-94
2024/02/22 11:54:42;;;;;;;0.70;0.70;;;;;;;9.87;85.45;96672.19;4951274;28;20066;-93
2024/02/22 11:57:08;;;;;;;0.70;0.70;;;;;;;9.86;85.52;96668.63;4950975;28;20050;-92
2024/02/22 11:59:34;;;;;;;0.70;0.70;;;;;;;9.93;84.98;96656.22;4951187;28;20042;-93
2024/02/22 12:02:05;;;;;;;0.70;0.70;;;;;;;9.95;84.29;96651.75;4948588;28;20043;-94
2024/02/22 12:04:33;;;;;;;0.70;0.70;;;;;;;9.95;83.91;96641.97;4961571;28;20050;-93